createdAt,value
2022-11-01T00:00:29.605Z,257
2022-11-01T00:02:44.027Z,262
2022-11-01T00:05:13.510Z,262
2022-11-01T00:07:33.722Z,267
2022-11-01T00:10:02.681Z,264
2022-11-01T00:12:12.850Z,262
2022-11-01T00:14:24.046Z,262
2022-11-01T00:16:34.075Z,270
2022-11-01T00:18:43.735Z,268
2022-11-01T00:21:09.608Z,268
2022-11-01T00:23:16.189Z,270
2022-11-01T00:25:22.946Z,268
2022-11-01T00:27:28.541Z,268
2022-11-01T00:30:03.409Z,268
2022-11-01T00:32:36.026Z,268
2022-11-01T00:34:44.875Z,268
2022-11-01T00:36:54.002Z,269
2022-11-01T00:38:59.550Z,268
2022-11-01T00:41:10.312Z,262
2022-11-01T00:45:53.374Z,253
2022-11-01T00:48:00.509Z,253
2022-11-01T00:50:09.943Z,254
2022-11-01T00:52:15.572Z,253
2022-11-01T00:54:22.157Z,254
2022-11-01T00:56:30.379Z,252
2022-11-01T00:58:36.100Z,253
2022-11-01T01:01:13.569Z,254
2022-11-01T01:03:19.519Z,249
2022-11-01T01:05:39.634Z,252
2022-11-01T01:07:45.208Z,249
2022-11-01T01:10:05.434Z,255
2022-11-01T01:12:18.516Z,247
2022-11-01T01:14:26.469Z,247
2022-11-01T01:16:39.878Z,248
2022-11-01T01:18:56.118Z,257
2022-11-01T01:21:01.774Z,255
2022-11-01T01:23:07.262Z,255
2022-11-01T01:25:13.807Z,256
2022-11-01T01:27:24.492Z,255
2022-11-01T01:29:33.707Z,254
2022-11-01T01:31:41.454Z,248
2022-11-01T01:33:47.003Z,247
2022-11-01T01:35:55.425Z,248
2022-11-01T01:38:01.958Z,256
2022-11-01T01:40:08.349Z,254
2022-11-01T01:42:19.670Z,255
2022-11-01T01:44:27.020Z,256
2022-11-01T01:46:35.085Z,257
2022-11-01T01:48:45.368Z,254
2022-11-01T01:50:53.128Z,249
2022-11-01T01:53:01.238Z,253
2022-11-01T01:55:12.013Z,246
2022-11-01T01:57:20.177Z,249
2022-11-01T01:59:27.651Z,252
2022-11-01T02:01:33.762Z,250
2022-11-01T02:03:39.529Z,253
2022-11-01T02:05:47.639Z,253
2022-11-01T02:07:59.502Z,253
2022-11-01T02:10:20.932Z,248
2022-11-01T02:12:29.269Z,248
2022-11-01T02:14:41.942Z,258
2022-11-01T02:16:53.451Z,253
2022-11-01T02:19:01.628Z,247
2022-11-01T02:21:10.281Z,250
2022-11-01T02:23:17.994Z,253
2022-11-01T02:25:48.581Z,261
2022-11-01T02:28:11.839Z,258
2022-11-01T02:30:21.031Z,259
2022-11-01T02:32:43.791Z,254
2022-11-01T02:35:10.564Z,247
2022-11-01T02:37:23.030Z,248
2022-11-01T02:39:32.048Z,257
2022-11-01T02:41:52.169Z,261
2022-11-01T02:44:18.679Z,261
2022-11-01T02:46:46.657Z,256
2022-11-01T02:48:56.048Z,256
2022-11-01T02:51:01.497Z,256
2022-11-01T02:53:09.747Z,254
2022-11-01T02:55:15.060Z,255
2022-11-01T02:57:41.615Z,256
2022-11-01T03:02:26.976Z,255
2022-11-01T03:04:39.152Z,253
2022-11-01T03:06:50.940Z,254
2022-11-01T03:09:01.158Z,253
2022-11-01T03:11:27.564Z,256
2022-11-01T03:13:47.497Z,253
2022-11-01T03:15:55.864Z,261
2022-11-01T03:18:22.235Z,253
2022-11-01T03:20:31.794Z,249
2022-11-01T03:22:37.287Z,254
2022-11-01T03:25:12.897Z,242
2022-11-01T03:27:21.035Z,255
2022-11-01T03:29:34.600Z,256
2022-11-01T03:31:45.401Z,256
2022-11-01T03:33:51.158Z,256
2022-11-01T03:35:59.381Z,252
2022-11-01T03:38:12.771Z,252
2022-11-01T03:40:18.442Z,252
2022-11-01T03:42:27.216Z,245
2022-11-01T03:44:35.499Z,247
2022-11-01T03:46:43.359Z,249
2022-11-01T03:48:54.434Z,249
2022-11-01T03:51:23.869Z,252
2022-11-01T03:53:29.646Z,250
2022-11-01T03:55:35.285Z,253
2022-11-01T03:57:41.785Z,244
2022-11-01T03:59:47.397Z,254
2022-11-01T04:01:56.586Z,252
2022-11-01T04:04:06.873Z,243
2022-11-01T04:06:12.204Z,261
2022-11-01T04:08:20.414Z,258
2022-11-01T04:10:32.473Z,252
2022-11-01T04:12:44.768Z,255
2022-11-01T04:14:53.220Z,254
2022-11-01T04:16:59.321Z,255
2022-11-01T04:19:05.813Z,249
2022-11-01T04:21:14.481Z,246
2022-11-01T04:23:19.930Z,247
2022-11-01T04:25:25.635Z,247
2022-11-01T04:27:31.429Z,247
2022-11-01T04:29:45.037Z,254
2022-11-01T04:31:50.757Z,252
2022-11-01T04:33:56.511Z,253
2022-11-01T04:36:10.328Z,255
2022-11-01T04:38:20.585Z,254
2022-11-01T04:40:29.219Z,252
2022-11-01T04:42:38.178Z,253
2022-11-01T04:44:47.011Z,253
2022-11-01T04:46:54.614Z,254
2022-11-01T04:49:02.910Z,252
2022-11-01T04:51:32.236Z,253
2022-11-01T04:53:38.671Z,248
2022-11-01T04:55:46.506Z,248
2022-11-01T04:57:52.167Z,252
2022-11-01T05:00:00.728Z,246
2022-11-01T05:02:14.581Z,253
2022-11-01T05:04:25.581Z,252
2022-11-01T05:06:37.001Z,252
2022-11-01T05:09:06.725Z,249
2022-11-01T05:11:17.606Z,252
2022-11-01T05:13:23.972Z,259
2022-11-01T05:15:29.408Z,258
2022-11-01T05:17:37.238Z,259
2022-11-01T05:19:42.675Z,257
2022-11-01T05:21:49.989Z,257
2022-11-01T05:23:57.782Z,257
2022-11-01T05:26:03.193Z,259
2022-11-01T05:28:09.884Z,259
2022-11-01T05:30:36.681Z,250
2022-11-01T05:32:45.145Z,245
2022-11-01T05:34:53.797Z,255
2022-11-01T05:37:03.375Z,259
2022-11-01T05:39:08.702Z,272
2022-11-01T05:41:16.153Z,272
2022-11-01T05:43:21.732Z,272
2022-11-01T05:45:28.285Z,272
2022-11-01T05:47:40.305Z,272
2022-11-01T05:49:51.522Z,272
2022-11-01T05:51:56.830Z,270
2022-11-01T05:54:02.513Z,268
2022-11-01T05:56:09.025Z,268
2022-11-01T05:58:30.516Z,268
2022-11-01T06:00:43.014Z,258
2022-11-01T06:02:49.082Z,259
2022-11-01T06:05:03.471Z,258
2022-11-01T06:07:13.115Z,257
2022-11-01T06:09:39.588Z,262
2022-11-01T06:11:44.960Z,262
2022-11-01T06:13:51.449Z,262
2022-11-01T06:15:58.037Z,262
2022-11-01T06:18:05.744Z,259
2022-11-01T06:20:38.095Z,248
2022-11-01T06:22:44.389Z,247
2022-11-01T06:24:49.745Z,253
2022-11-01T06:26:56.346Z,254
2022-11-01T06:29:05.063Z,255
2022-11-01T06:31:13.339Z,255
2022-11-01T06:33:21.938Z,256
2022-11-01T06:35:27.589Z,257
2022-11-01T06:37:35.103Z,259
2022-11-01T06:39:44.661Z,259
2022-11-01T06:41:51.844Z,258
2022-11-01T06:43:57.771Z,256
2022-11-01T06:46:07.915Z,247
2022-11-01T06:48:14.711Z,250
2022-11-01T06:50:21.150Z,250
2022-11-01T06:52:31.705Z,266
2022-11-01T06:54:38.799Z,253
2022-11-01T06:56:48.771Z,254
2022-11-01T06:58:55.101Z,255
2022-11-01T07:01:05.151Z,254
2022-11-01T07:03:15.620Z,255
2022-11-01T07:05:22.722Z,255
2022-11-01T07:07:30.822Z,261
2022-11-01T07:09:37.703Z,261
2022-11-01T07:11:47.844Z,259
2022-11-01T07:13:54.422Z,257
2022-11-01T07:16:04.339Z,258
2022-11-01T07:18:10.934Z,256
2022-11-01T07:20:16.824Z,256
2022-11-01T07:22:22.929Z,259
2022-11-01T07:24:28.684Z,257
2022-11-01T07:26:35.116Z,257
2022-11-01T07:28:44.284Z,257
2022-11-01T07:31:13.074Z,258
2022-11-01T07:33:18.478Z,257
2022-11-01T07:35:26.199Z,257
2022-11-01T07:37:35.157Z,259
2022-11-01T07:39:47.526Z,259
2022-11-01T07:41:53.555Z,261
2022-11-01T07:44:01.729Z,259
2022-11-01T07:46:07.540Z,257
2022-11-01T07:48:13.600Z,261
2022-11-01T07:50:19.400Z,259
2022-11-01T07:52:25.101Z,257
2022-11-01T07:54:30.728Z,255
2022-11-01T07:56:46.079Z,258
2022-11-01T07:58:57.108Z,257
2022-11-01T08:01:05.211Z,256
2022-11-01T08:03:14.199Z,256
2022-11-01T08:05:20.532Z,258
2022-11-01T08:07:30.555Z,257
2022-11-01T08:09:38.265Z,257
2022-11-01T08:11:45.372Z,259
2022-11-01T08:14:14.195Z,257
2022-11-01T08:16:23.529Z,257
2022-11-01T08:18:29.673Z,257
2022-11-01T08:20:35.390Z,259
2022-11-01T08:22:41.838Z,256
2022-11-01T08:24:50.761Z,258
2022-11-01T08:26:57.763Z,257
2022-11-01T08:29:04.197Z,257
2022-11-01T08:31:26.049Z,257
2022-11-01T08:33:32.530Z,257
2022-11-01T08:35:49.032Z,258
2022-11-01T08:37:57.646Z,256
2022-11-01T08:40:04.253Z,261
2022-11-01T08:42:12.311Z,260
2022-11-01T08:44:22.784Z,261
2022-11-01T08:46:31.885Z,261
2022-11-01T08:48:40.746Z,257
2022-11-01T08:53:19.306Z,257
2022-11-01T08:55:27.140Z,257
2022-11-01T08:57:36.774Z,256
2022-11-01T08:59:43.402Z,259
2022-11-01T09:01:51.792Z,257
2022-11-01T09:04:00.910Z,257
2022-11-01T09:06:08.426Z,257
2022-11-01T09:08:17.615Z,259
2022-11-01T09:10:31.293Z,257
2022-11-01T09:14:47.047Z,257
2022-11-01T09:16:53.540Z,258
2022-11-01T09:19:00.808Z,260
2022-11-01T09:21:07.439Z,259
2022-11-01T09:23:19.026Z,259
2022-11-01T09:25:31.160Z,259
2022-11-01T09:27:37.824Z,256
2022-11-01T09:29:54.192Z,257
2022-11-01T09:32:05.794Z,259
2022-11-01T09:34:19.071Z,257
2022-11-01T09:36:28.858Z,257
2022-11-01T09:38:39.808Z,256
2022-11-01T09:40:46.158Z,256
2022-11-01T09:42:53.525Z,256
2022-11-01T09:45:07.098Z,257
2022-11-01T09:47:13.641Z,261
2022-11-01T09:49:19.990Z,259
2022-11-01T09:51:26.291Z,260
2022-11-01T09:53:33.992Z,259
2022-11-01T09:55:39.782Z,258
2022-11-01T09:57:49.390Z,257
2022-11-01T09:59:55.694Z,257
2022-11-01T10:02:04.656Z,257
2022-11-01T10:04:15.143Z,258
2022-11-01T10:06:21.673Z,259
2022-11-01T10:08:29.723Z,257
2022-11-01T10:10:38.325Z,259
2022-11-01T10:12:45.044Z,258
2022-11-01T10:14:51.494Z,257
2022-11-01T10:16:57.433Z,257
2022-11-01T10:19:04.204Z,260
2022-11-01T10:21:10.694Z,259
2022-11-01T10:23:16.906Z,257
2022-11-01T10:25:23.280Z,273
2022-11-01T10:27:36.188Z,273
2022-11-01T10:29:43.329Z,273
2022-11-01T10:31:50.153Z,274
2022-11-01T10:33:57.375Z,273
2022-11-01T10:36:04.169Z,273
2022-11-01T10:42:05.167Z,268
2022-11-01T10:44:11.419Z,267
2022-11-01T10:46:18.835Z,268
2022-11-01T10:48:26.077Z,266
2022-11-01T10:50:33.815Z,268
2022-11-01T10:52:45.075Z,268
2022-11-01T10:54:50.995Z,268
2022-11-01T10:56:57.153Z,266
2022-11-01T10:59:05.093Z,267
2022-11-01T11:01:12.566Z,265
2022-11-01T11:03:20.056Z,264
2022-11-01T11:05:26.606Z,265
2022-11-01T11:07:34.401Z,264
2022-11-01T11:09:40.893Z,264
2022-11-01T11:11:47.485Z,264
2022-11-01T11:13:54.131Z,262
2022-11-01T11:16:00.669Z,265
2022-11-01T11:18:07.033Z,264
2022-11-01T11:20:13.526Z,264
2022-11-01T11:22:20.729Z,265
2022-11-01T11:24:27.485Z,264
2022-11-01T11:28:51.119Z,264
2022-11-01T11:30:57.617Z,264
2022-11-01T11:33:03.968Z,262
2022-11-01T11:35:10.908Z,262
2022-11-01T11:37:17.252Z,264
2022-11-01T11:39:24.398Z,261
2022-11-01T11:41:31.727Z,265
2022-11-01T11:43:38.147Z,265
2022-11-01T11:45:44.577Z,264
2022-11-01T11:47:51.181Z,265
2022-11-01T11:49:58.568Z,264
2022-11-01T11:52:06.322Z,264
2022-11-01T11:54:13.313Z,262
2022-11-01T11:56:20.400Z,262
2022-11-01T11:58:26.881Z,265
2022-11-01T12:00:33.555Z,264
2022-11-01T12:02:40.299Z,264
2022-11-01T12:04:47.008Z,262
2022-11-01T12:06:53.794Z,264
2022-11-01T12:09:02.999Z,264
2022-11-01T12:11:10.327Z,265
2022-11-01T12:13:16.833Z,264
2022-11-01T12:15:23.264Z,265
2022-11-01T12:17:32.943Z,262
2022-11-01T12:19:39.954Z,265
2022-11-01T12:21:46.834Z,265
2022-11-01T12:23:54.038Z,264
2022-11-01T12:26:02.031Z,252
2022-11-01T12:28:09.670Z,252
2022-11-01T12:30:19.280Z,247
2022-11-01T12:32:26.466Z,252
2022-11-01T12:34:38.317Z,252
2022-11-01T12:36:48.805Z,249
2022-11-01T12:38:55.730Z,249
2022-11-01T12:41:05.367Z,253
2022-11-01T12:43:11.653Z,252
2022-11-01T12:45:18.394Z,253
2022-11-01T12:47:28.339Z,248
2022-11-01T12:49:35.142Z,249
2022-11-01T12:51:42.561Z,250
2022-11-01T12:53:50.045Z,249
2022-11-01T12:55:56.700Z,252
2022-11-01T12:58:03.130Z,252
2022-11-01T13:00:10.267Z,248
2022-11-01T13:02:17.587Z,248
2022-11-01T13:04:33.367Z,249
2022-11-01T13:06:39.703Z,252
2022-11-01T13:08:46.427Z,248
2022-11-01T13:10:54.401Z,247
2022-11-01T13:13:01.251Z,247
2022-11-01T13:15:08.922Z,246
2022-11-01T13:17:16.794Z,247
2022-11-01T13:19:24.177Z,254
2022-11-01T13:21:31.192Z,254
2022-11-01T13:23:37.572Z,249
2022-11-01T13:25:44.294Z,246
2022-11-01T13:27:51.121Z,248
2022-11-01T13:29:57.961Z,246
2022-11-01T13:32:08.866Z,248
2022-11-01T13:34:15.498Z,253
2022-11-01T13:36:24.174Z,255
2022-11-01T13:38:36.851Z,255
2022-11-01T13:40:44.501Z,249
2022-11-01T13:42:51.441Z,256
2022-11-01T13:44:57.889Z,246
2022-11-01T13:47:05.223Z,259
2022-11-01T13:49:13.434Z,257
2022-11-01T13:51:20.510Z,256
2022-11-01T13:53:27.951Z,259
2022-11-01T13:55:35.072Z,259
2022-11-01T13:57:48.270Z,242
2022-11-01T13:59:55.620Z,243
2022-11-01T14:02:02.623Z,261
2022-11-01T14:04:09.371Z,258
2022-11-01T14:06:16.331Z,256
2022-11-01T14:08:23.224Z,254
2022-11-01T14:10:31.692Z,254
2022-11-01T14:12:42.046Z,234
2022-11-01T14:14:58.419Z,255
2022-11-01T14:17:05.588Z,255
2022-11-01T14:19:14.818Z,256
2022-11-01T14:21:26.673Z,254
2022-11-01T14:23:33.128Z,256
2022-11-01T14:25:39.499Z,255
2022-11-01T14:27:54.431Z,253
2022-11-01T14:30:01.250Z,255
2022-11-01T14:32:07.634Z,255
2022-11-01T14:34:14.970Z,253
2022-11-01T14:36:21.691Z,253
2022-11-01T14:38:29.562Z,253
2022-11-01T14:40:36.560Z,252
2022-11-01T14:42:43.689Z,252
2022-11-01T14:44:53.797Z,252
2022-11-01T14:47:00.750Z,252
2022-11-01T14:49:07.596Z,249
2022-11-01T14:51:14.742Z,249
2022-11-01T14:53:22.540Z,252
2022-11-01T14:55:50.478Z,247
2022-11-01T14:57:58.970Z,249
2022-11-01T15:00:07.037Z,256
2022-11-01T15:02:14.400Z,255
2022-11-01T15:04:21.734Z,253
2022-11-01T15:06:29.444Z,253
2022-11-01T15:08:36.467Z,256
2022-11-01T15:10:44.545Z,256
2022-11-01T15:12:53.970Z,249
2022-11-01T15:15:01.088Z,253
2022-11-01T15:17:11.235Z,253
2022-11-01T15:19:17.701Z,249
2022-11-01T15:21:32.505Z,252
2022-11-01T15:23:38.996Z,254
2022-11-01T15:25:45.518Z,253
2022-11-01T15:27:52.780Z,254
2022-11-01T15:29:59.974Z,264
2022-11-01T15:32:10.734Z,265
2022-11-01T15:34:17.670Z,273
2022-11-01T15:36:25.072Z,274
2022-11-01T15:38:31.836Z,273
2022-11-01T15:40:39.406Z,273
2022-11-01T15:42:46.562Z,272
2022-11-01T15:44:53.467Z,272
2022-11-01T15:47:00.793Z,273
2022-11-01T15:49:07.604Z,272
2022-11-01T15:51:19.279Z,272
2022-11-01T15:53:25.963Z,272
2022-11-01T15:55:33.752Z,272
2022-11-01T15:57:42.780Z,270
2022-11-01T15:59:50.582Z,271
2022-11-01T16:02:02.939Z,272
2022-11-01T16:04:10.332Z,271
2022-11-01T16:06:18.830Z,267
2022-11-01T16:08:26.589Z,266
2022-11-01T16:10:33.812Z,267
2022-11-01T16:12:41.588Z,267
2022-11-01T16:14:49.479Z,266
2022-11-01T16:16:59.530Z,267
2022-11-01T16:19:06.902Z,266
2022-11-01T16:21:13.739Z,266
2022-11-01T16:23:20.607Z,265
2022-11-01T16:25:28.518Z,264
2022-11-01T16:27:37.633Z,262
2022-11-01T16:29:44.629Z,262
2022-11-01T16:31:51.602Z,264
2022-11-01T16:33:59.073Z,264
2022-11-01T16:36:07.469Z,262
2022-11-01T16:38:30.885Z,264
2022-11-01T16:40:44.966Z,260
2022-11-01T16:43:06.963Z,253
2022-11-01T16:45:13.675Z,255
2022-11-01T16:47:23.305Z,255
2022-11-01T16:49:45.395Z,255
2022-11-01T16:51:52.881Z,242
2022-11-01T16:54:01.468Z,243
2022-11-01T16:56:40.070Z,261
2022-11-01T16:58:47.097Z,264
2022-11-01T17:00:57.351Z,261
2022-11-01T17:03:21.472Z,262
2022-11-01T17:05:31.753Z,257
2022-11-01T17:07:44.070Z,256
2022-11-01T17:09:50.814Z,257
2022-11-01T17:11:59.414Z,257
2022-11-01T17:14:05.761Z,259
2022-11-01T17:16:14.013Z,257
2022-11-01T17:18:49.903Z,257
2022-11-01T17:20:57.085Z,259
2022-11-01T17:23:06.522Z,257
2022-11-01T17:25:22.035Z,257
2022-11-01T17:27:35.927Z,256
2022-11-01T17:29:45.430Z,244
2022-11-01T17:31:55.373Z,268
2022-11-01T17:34:03.107Z,268
2022-11-01T17:36:12.363Z,270
2022-11-01T17:38:30.043Z,268
2022-11-01T17:40:44.709Z,270
2022-11-01T17:42:53.694Z,270
2022-11-01T17:45:03.157Z,268
2022-11-01T17:47:16.828Z,268
2022-11-01T17:49:25.750Z,268
2022-11-01T17:51:35.759Z,270
2022-11-01T17:53:46.217Z,270
2022-11-01T17:55:57.196Z,270
2022-11-01T17:58:06.954Z,270
2022-11-01T18:00:23.049Z,268
2022-11-01T18:02:42.939Z,270
2022-11-01T18:04:54.067Z,270
2022-11-01T18:07:17.707Z,268
2022-11-01T18:09:27.199Z,270
2022-11-01T18:11:37.141Z,268
2022-11-01T18:13:50.326Z,268
2022-11-01T18:15:59.814Z,268
2022-11-01T18:18:10.400Z,268
2022-11-01T18:20:19.483Z,270
2022-11-01T18:22:38.508Z,270
2022-11-01T18:24:49.923Z,268
2022-11-01T18:27:06.500Z,266
2022-11-01T18:29:29.112Z,265
2022-11-01T18:31:42.044Z,264
2022-11-01T18:33:51.995Z,265
2022-11-01T18:36:01.824Z,265
2022-11-01T18:38:26.159Z,267
2022-11-01T18:40:37.187Z,266
2022-11-01T18:42:48.074Z,267
2022-11-01T18:45:02.280Z,266
2022-11-01T18:47:21.967Z,266
2022-11-01T18:49:35.894Z,264
2022-11-01T18:51:49.589Z,256
2022-11-01T18:54:05.955Z,257
2022-11-01T18:56:33.314Z,259
2022-11-01T18:58:44.642Z,256
2022-11-01T19:01:00.280Z,256
2022-11-01T19:03:20.564Z,257
2022-11-01T19:05:58.473Z,259
2022-11-01T19:08:15.008Z,258
2022-11-01T19:10:23.890Z,256
2022-11-01T19:12:36.860Z,259
2022-11-01T19:14:49.753Z,257
2022-11-01T19:17:02.012Z,258
2022-11-01T19:19:17.158Z,258
2022-11-01T19:21:27.399Z,257
2022-11-01T19:23:45.651Z,258
2022-11-01T19:26:07.159Z,257
2022-11-01T19:28:15.206Z,257
2022-11-01T19:30:27.214Z,257
2022-11-01T19:32:41.261Z,258
2022-11-01T19:34:53.319Z,260
2022-11-01T19:37:03.832Z,259
2022-11-01T19:39:13.925Z,257
2022-11-01T19:41:24.925Z,259
2022-11-01T19:43:37.905Z,262
2022-11-01T19:45:57.173Z,261
2022-11-01T19:48:10.913Z,260
2022-11-01T19:50:32.747Z,261
2022-11-01T19:52:47.608Z,259
2022-11-01T19:54:57.781Z,256
2022-11-01T19:57:06.823Z,255
2022-11-01T19:59:18.505Z,258
2022-11-01T20:01:30.484Z,258
2022-11-01T20:03:47.812Z,256
2022-11-01T20:06:11.119Z,256
2022-11-01T20:08:21.339Z,255
2022-11-01T20:10:40.903Z,259
2022-11-01T20:12:54.659Z,264
2022-11-01T20:15:08.060Z,262
2022-11-01T20:17:21.706Z,262
2022-11-01T20:19:31.288Z,262
2022-11-01T20:21:44.661Z,256
2022-11-01T20:23:59.262Z,257
2022-11-01T20:26:20.709Z,257
2022-11-01T20:28:34.934Z,257
2022-11-01T20:30:48.305Z,257
2022-11-01T20:33:01.568Z,256
2022-11-01T20:35:16.098Z,259
2022-11-01T20:37:32.505Z,258
2022-11-01T20:39:42.173Z,259
2022-11-01T20:42:04.865Z,256
2022-11-01T20:44:14.245Z,256
2022-11-01T20:46:37.615Z,256
2022-11-01T20:48:51.011Z,257
2022-11-01T20:51:02.059Z,257
2022-11-01T20:53:17.508Z,256
2022-11-01T20:55:27.273Z,254
2022-11-01T20:57:38.668Z,255
2022-11-01T20:59:51.343Z,256
2022-11-01T21:02:06.466Z,256
2022-11-01T21:04:17.467Z,257
2022-11-01T21:06:25.365Z,257
2022-11-01T21:08:37.472Z,257
2022-11-01T21:11:13.066Z,257
2022-11-01T21:13:29.563Z,257
2022-11-01T21:15:37.363Z,257
2022-11-01T21:17:44.903Z,257
2022-11-01T21:19:56.426Z,256
2022-11-01T21:22:05.151Z,266
2022-11-01T21:24:12.668Z,267
2022-11-01T21:26:22.972Z,266
2022-11-01T21:28:31.651Z,265
2022-11-01T21:30:40.511Z,266
2022-11-01T21:32:50.777Z,262
2022-11-01T21:34:58.265Z,262
2022-11-01T21:37:06.678Z,265
2022-11-01T21:39:18.609Z,266
2022-11-01T21:41:25.516Z,265
2022-11-01T21:43:32.453Z,264
2022-11-01T21:45:39.886Z,264
2022-11-01T21:47:50.376Z,262
2022-11-01T21:49:56.865Z,264
2022-11-01T21:52:04.597Z,261
2022-11-01T21:54:10.666Z,262
2022-11-01T21:56:16.543Z,265
2022-11-01T21:58:22.785Z,265
2022-11-01T22:00:28.921Z,266
2022-11-01T22:02:39.762Z,266
2022-11-01T22:04:48.057Z,254
2022-11-01T22:06:54.713Z,256
2022-11-01T22:09:01.405Z,254
2022-11-01T22:11:08.077Z,254
2022-11-01T22:13:15.114Z,253
2022-11-01T22:15:20.959Z,252
2022-11-01T22:17:27.683Z,253
2022-11-01T22:19:33.223Z,253
2022-11-01T22:21:39.200Z,253
2022-11-01T22:23:45.351Z,253
2022-11-01T22:25:50.955Z,255
2022-11-01T22:27:57.905Z,255
2022-11-01T22:30:06.984Z,255
2022-11-01T22:32:12.293Z,254
2022-11-01T22:34:17.856Z,259
2022-11-01T22:36:23.140Z,259
2022-11-01T22:38:28.847Z,256
2022-11-01T22:40:37.755Z,256
2022-11-01T22:42:44.052Z,256
2022-11-01T22:44:51.659Z,257
2022-11-01T22:47:02.168Z,262
2022-11-01T22:49:07.829Z,262
2022-11-01T22:51:16.634Z,261
2022-11-01T22:53:43.790Z,261
2022-11-01T22:55:49.715Z,259
2022-11-01T22:57:55.363Z,256
2022-11-01T23:00:01.412Z,256
2022-11-01T23:02:08.054Z,259
2022-11-01T23:04:13.754Z,258
2022-11-01T23:06:19.210Z,259
2022-11-01T23:08:24.864Z,261
2022-11-01T23:10:30.179Z,260
2022-11-01T23:12:35.610Z,258
2022-11-01T23:14:41.515Z,257
2022-11-01T23:16:47.277Z,257
2022-11-01T23:18:53.083Z,258
2022-11-01T23:20:58.590Z,259
2022-11-01T23:23:06.664Z,258
2022-11-01T23:25:12.548Z,261
2022-11-01T23:27:21.280Z,261
2022-11-01T23:29:27.150Z,260
2022-11-01T23:31:32.745Z,258
2022-11-01T23:33:38.046Z,258
2022-11-01T23:35:43.624Z,261
2022-11-01T23:37:49.257Z,259
2022-11-01T23:39:54.830Z,257
2022-11-01T23:42:04.639Z,257
2022-11-01T23:44:10.962Z,257
2022-11-01T23:46:16.351Z,257
2022-11-01T23:48:21.708Z,256
2022-11-01T23:50:27.084Z,256
2022-11-01T23:52:33.625Z,256
2022-11-01T23:54:38.834Z,256
2022-11-01T23:56:44.146Z,257
2022-11-01T23:58:49.507Z,256
